Belmont, New York
Current Conditions -  °F | °C
As of 8:56 AM on Thursday 23 Oct 2014 (Local Time) from KELZ Reporting Station
Overcast Overcast  
Wind Chill: 34°   Ceiling: 500
Heat Index: 41°   Visibility: 10mi
Dew Point: 38°   Wind: 12mph
Humidity: 89%   Direction: 340°NNW
Pressure: 30.05"   Gusts: 22mph
Location:  42.22°N, 78.03°W
Report Text: KELZ 231256Z AUTO 34010G19KT 10SM OVC005 05/03 A3005 RMK AO2 RAB28E56 CIG 004V009 SLP191 P0000 T00500033
Loading
Personal Weather Stations






























Interactive Weather Map
Tropical Storm Tracking
New forecast layout! Learn more

10-Day Weather Forecast

Advertisements
Track Severe Weather on mobile